TimeMST,TemperatureF,Dew PointF,Humidity,Sea Level PressureIn,VisibilityMPH,Wind Direction,Wind SpeedMPH,Gust SpeedMPH,PrecipitationIn,Events,Conditions,WindDirDegrees,DateUTC
12:03 AM,42.8,19.4,39,29.99,10.0,South,27.6,35.7,N/A,,Clear,190,2013-01-10 07:03:00
12:24 AM,42.8,17.6,36,29.99,10.0,South,19.6,27.6,N/A,,Clear,180,2013-01-10 07:24:00
12:44 AM,42.8,17.6,36,29.98,10.0,South,20.7,26.5,N/A,,Clear,180,2013-01-10 07:44:00
1:05 AM,42.8,15.8,34,29.96,10.0,South,24.2,28.8,N/A,,Clear,180,2013-01-10 08:05:00
1:24 AM,42.8,15.8,34,29.95,10.0,South,17.3,21.9,N/A,,Clear,170,2013-01-10 08:24:00
1:44 AM,42.8,15.8,34,29.95,7.0,South,19.6,26.5,N/A,,Clear,180,2013-01-10 08:44:00
2:05 AM,41.0,15.8,36,29.94,10.0,South,17.3,-,N/A,,Clear,170,2013-01-10 09:05:00
2:25 AM,41.0,15.8,36,29.93,10.0,South,18.4,-,N/A,,Clear,180,2013-01-10 09:25:00
2:45 AM,41.0,15.8,36,29.93,10.0,South,16.1,-,N/A,,Clear,190,2013-01-10 09:45:00
3:04 AM,41.0,15.8,36,29.91,10.0,South,19.6,-,N/A,,Clear,190,2013-01-10 10:04:00
3:25 AM,39.2,15.8,39,29.91,10.0,South,16.1,-,N/A,,Clear,190,2013-01-10 10:25:00
3:45 AM,41.0,14.0,33,29.89,10.0,South,18.4,25.3,N/A,,Clear,190,2013-01-10 10:45:00
4:04 AM,37.4,14.0,38,29.88,10.0,South,17.3,-,N/A,,Clear,190,2013-01-10 11:04:00
4:25 AM,37.4,14.0,38,29.87,10.0,SSW,20.7,-,N/A,,Clear,200,2013-01-10 11:25:00
4:45 AM,37.4,14.0,38,29.86,10.0,South,18.4,23.0,N/A,,Clear,190,2013-01-10 11:45:00
5:05 AM,41.0,12.2,31,29.85,10.0,South,18.4,25.3,N/A,,Clear,190,2013-01-10 12:05:00
5:45 AM,33.8,14.0,44,29.84,10.0,South,13.8,-,N/A,,Clear,190,2013-01-10 12:45:00
6:05 AM,35.6,15.8,44,29.83,10.0,SSW,21.9,27.6,N/A,,Clear,200,2013-01-10 13:05:00
6:25 AM,35.6,14.0,41,29.81,10.0,South,20.7,27.6,N/A,,Clear,190,2013-01-10 13:25:00
6:45 AM,35.6,14.0,41,29.81,10.0,South,17.3,25.3,N/A,,Clear,190,2013-01-10 13:45:00
7:02 AM,35.6,14.0,41,29.81,10.0,SSW,15.0,20.7,N/A,,Clear,210,2013-01-10 14:02:00
7:50 AM,35.6,12.2,38,29.79,50.0,Calm,Calm,-,N/A,,Scattered Clouds,0,2013-01-10 14:50:00
8:47 AM,48.2,8.6,20,29.76,50.0,South,21.9,27.6,N/A,,Mostly Cloudy,190,2013-01-10 15:47:00
11:47 AM,55.4,8.6,15,29.66,50.0,SSW,11.5,19.6,N/A,,Mostly Cloudy,200,2013-01-10 18:47:00
12:47 PM,44.6,23.0,43,29.63,50.0,WNW,4.6,-,N/A,,Mostly Cloudy,300,2013-01-10 19:47:00
6:05 PM,37.4,17.6,45,29.54,10.0,SSW,4.6,-,N/A,,Clear,210,2013-01-11 01:05:00
6:25 PM,48.2,10.4,22,29.53,10.0,SSW,8.1,-,N/A,,Clear,210,2013-01-11 01:25:00
6:45 PM,46.4,12.2,25,29.53,10.0,WNW,6.9,-,N/A,,Clear,300,2013-01-11 01:45:00
7:04 PM,33.8,21.2,60,29.52,10.0,WSW,10.4,-,N/A,,Clear,240,2013-01-11 02:04:00
7:25 PM,37.4,19.4,48,29.52,10.0,West,9.2,-,N/A,,Clear,270,2013-01-11 02:25:00
8:05 PM,32.0,23.0,69,29.52,10.0,WSW,11.5,-,N/A,,Clear,250,2013-01-11 03:05:00
8:24 PM,37.4,17.6,45,29.53,10.0,WSW,10.4,-,N/A,,Clear,250,2013-01-11 03:24:00
8:44 PM,37.4,17.6,45,29.52,10.0,SW,10.4,-,N/A,,Clear,230,2013-01-11 03:44:00
9:03 PM,46.4,12.2,25,29.51,10.0,SSW,19.6,-,N/A,,Clear,210,2013-01-11 04:03:00
9:24 PM,46.4,14.0,27,29.50,10.0,SSW,17.3,-,N/A,,Clear,210,2013-01-11 04:24:00
9:45 PM,46.4,15.8,29,29.50,10.0,SSW,18.4,-,N/A,,Clear,210,2013-01-11 04:45:00
10:05 PM,46.4,17.6,32,29.49,10.0,SSW,18.4,21.9,N/A,,Clear,210,2013-01-11 05:05:00
10:24 PM,48.2,17.6,30,29.48,10.0,SSW,18.4,23.0,N/A,,Clear,210,2013-01-11 05:24:00
10:44 PM,48.2,17.6,30,29.47,10.0,SSW,18.4,26.5,N/A,,Clear,210,2013-01-11 05:44:00
11:04 PM,46.4,17.6,32,29.45,10.0,SSW,17.3,23.0,N/A,,Clear,210,2013-01-11 06:04:00
11:25 PM,46.4,17.6,32,29.45,10.0,SW,23.0,29.9,N/A,,Clear,220,2013-01-11 06:25:00
11:45 PM,46.4,17.6,32,29.45,10.0,SW,21.9,28.8,N/A,,Clear,220,2013-01-11 06:45:00